Time;durP1;ratioP1;P1;durP2;ratioP2;P2;SDS_P1;SDS_P2;PMS_P1;PMS_P2;Temp;Humidity;BMP_temperature;BMP_pressure;BME280_temperature;BME280_humidity;BME280_pressure;Samples;Min_cycle;Max_cycle;Signal;HPM_P1;HPM_P2
2023/06/26 00:00:15;;;;;;;7.47;5.50;;;;;;;;;;5044331;28;20384;-69
2023/06/26 00:02:41;;;;;;;8.07;5.57;;;;;;;;;;5044854;28;20947;-68
2023/06/26 00:05:07;;;;;;;7.57;5.75;;;;;;;;;;5044639;28;20095;-68
2023/06/26 00:07:36;;;;;;;6.65;5.57;;;;;;;;;;5043997;28;20021;-68
2023/06/26 00:10:05;;;;;;;7.88;5.60;;;;;;;;;;5045214;28;20814;-68
2023/06/26 00:12:31;;;;;;;7.57;5.43;;;;;;;;;;5040091;28;20038;-69
2023/06/26 00:14:58;;;;;;;8.68;6.03;;;;;;;;;;5044454;28;20041;-69
2023/06/26 00:17:23;;;;;;;8.38;5.80;;;;;;;;;;5040690;28;20035;-69
2023/06/26 00:19:50;;;;;;;6.57;5.85;;;;;;;;;;5044253;28;20112;-69
2023/06/26 00:22:15;;;;;;;7.38;5.80;;;;;;;;;;5044471;28;20151;-69
2023/06/26 00:24:41;;;;;;;7.88;5.55;;;;;;;;;;5043137;28;20784;-69
2023/06/26 00:27:07;;;;;;;8.45;5.38;;;;;;;;;;5043023;28;20025;-69
2023/06/26 00:29:32;;;;;;;7.05;5.50;;;;;;;;;;5042777;28;20037;-69
2023/06/26 00:31:58;;;;;;;7.95;5.95;;;;;;;;;;5044362;28;20480;-69
2023/06/26 00:34:24;;;;;;;6.65;5.28;;;;;;;;;;5040848;28;20053;-69
2023/06/26 00:36:49;;;;;;;7.72;5.80;;;;;;;;;;5042972;28;20109;-69
2023/06/26 00:39:15;;;;;;;7.32;5.32;;;;;;;;;;5042809;28;20060;-69
2023/06/26 00:41:41;;;;;;;8.27;6.25;;;;;;;;;;5042870;28;20033;-69
2023/06/26 00:44:06;;;;;;;7.38;5.72;;;;;;;;;;5046362;28;20029;-69
2023/06/26 00:46:32;;;;;;;7.95;6.25;;;;;;;;;;5046638;28;20024;-69
2023/06/26 00:49:03;;;;;;;8.35;5.95;;;;;;;;;;5046733;28;20037;-68
2023/06/26 00:51:30;;;;;;;8.95;5.75;;;;;;;;;;5045831;28;20083;-69
2023/06/26 00:53:57;;;;;;;8.57;6.00;;;;;;;;;;5048162;28;20082;-68
2023/06/26 00:56:23;;;;;;;6.90;5.70;;;;;;;;;;5047763;28;20056;-68
2023/06/26 00:58:49;;;;;;;7.32;5.85;;;;;;;;;;5044562;28;20108;-68
2023/06/26 01:01:17;;;;;;;8.40;6.00;;;;;;;;;;5063203;28;20111;-68
2023/06/26 01:03:51;;;;;;;7.82;5.95;;;;;;;;;;5046581;28;20424;-68
2023/06/26 01:06:17;;;;;;;8.48;6.20;;;;;;;;;;5046931;28;20021;-69
2023/06/26 01:08:44;;;;;;;9.15;5.90;;;;;;;;;;5071862;28;20119;-69
2023/06/26 01:11:10;;;;;;;9.10;6.00;;;;;;;;;;5045136;28;20136;-69
2023/06/26 01:13:36;;;;;;;7.95;5.80;;;;;;;;;;5029153;28;20555;-69
2023/06/26 01:16:04;;;;;;;8.75;5.78;;;;;;;;;;5047277;28;20024;-68
2023/06/26 01:18:32;;;;;;;7.40;5.70;;;;;;;;;;5074987;28;20033;-69
2023/06/26 01:21:01;;;;;;;7.22;5.72;;;;;;;;;;5047751;28;20028;-68
2023/06/26 01:23:49;;;;;;;8.60;6.28;;;;;;;;;;5047583;28;20048;-68
2023/06/26 01:26:20;;;;;;;8.07;5.63;;;;;;;;;;5045442;28;20044;-68
2023/06/26 01:28:46;;;;;;;10.52;6.50;;;;;;;;;;5046665;28;20065;-69
2023/06/26 01:31:12;;;;;;;7.55;5.85;;;;;;;;;;5039585;28;20064;-68
2023/06/26 01:33:40;;;;;;;7.80;6.25;;;;;;;;;;5044511;28;20407;-68
2023/06/26 01:36:07;;;;;;;7.53;6.28;;;;;;;;;;5046793;28;20035;-68
2023/06/26 01:38:35;;;;;;;9.98;6.55;;;;;;;;;;5046379;28;20048;-68
2023/06/26 01:41:01;;;;;;;7.80;6.35;;;;;;;;;;5046034;28;20040;-69
2023/06/26 01:43:36;;;;;;;8.95;6.53;;;;;;;;;;5045394;28;20480;-68
2023/06/26 01:46:05;;;;;;;7.70;6.07;;;;;;;;;;5045837;28;20033;-68
2023/06/26 01:48:46;;;;;;;7.38;5.63;;;;;;;;;;5061824;28;20036;-68
2023/06/26 01:51:14;;;;;;;10.00;6.05;;;;;;;;;;5043871;28;20112;-69
2023/06/26 01:53:44;;;;;;;8.00;6.03;;;;;;;;;;5061972;28;20068;-69
2023/06/26 01:56:15;;;;;;;11.25;6.55;;;;;;;;;;5047312;28;20071;-69
2023/06/26 01:58:45;;;;;;;8.18;6.18;;;;;;;;;;5046873;28;20132;-68
2023/06/26 02:01:11;;;;;;;6.90;5.68;;;;;;;;;;5042282;28;20048;-68
2023/06/26 02:03:37;;;;;;;7.07;5.93;;;;;;;;;;5045247;28;20041;-69
2023/06/26 02:06:02;;;;;;;7.90;6.00;;;;;;;;;;5045766;28;20032;-68
2023/06/26 02:08:28;;;;;;;8.95;6.40;;;;;;;;;;5061389;28;20041;-68
2023/06/26 02:10:56;;;;;;;7.80;5.97;;;;;;;;;;5075031;28;20041;-68
2023/06/26 02:13:21;;;;;;;6.80;5.90;;;;;;;;;;5061998;28;20511;-68
2023/06/26 02:15:47;;;;;;;7.32;5.85;;;;;;;;;;5061992;28;20041;-68
2023/06/26 02:18:13;;;;;;;8.15;6.07;;;;;;;;;;5046068;28;20580;-69
2023/06/26 02:20:39;;;;;;;12.07;6.32;;;;;;;;;;5034094;28;20131;-68
2023/06/26 02:23:05;;;;;;;8.50;6.55;;;;;;;;;;5043803;28;20068;-68
2023/06/26 02:25:31;;;;;;;6.90;5.90;;;;;;;;;;5046333;28;20065;-69
2023/06/26 02:27:56;;;;;;;7.18;5.75;;;;;;;;;;5045416;28;20029;-68
2023/06/26 02:30:22;;;;;;;12.95;6.70;;;;;;;;;;5043866;28;20037;-68
2023/06/26 02:32:47;;;;;;;7.70;6.25;;;;;;;;;;5046640;28;20033;-68
2023/06/26 02:35:13;;;;;;;8.00;6.63;;;;;;;;;;5045007;28;20060;-68
2023/06/26 02:37:41;;;;;;;6.57;5.87;;;;;;;;;;5044142;28;20495;-68
2023/06/26 02:40:09;;;;;;;6.82;6.13;;;;;;;;;;5043393;28;20405;-68
2023/06/26 02:42:36;;;;;;;6.75;6.03;;;;;;;;;;5061066;28;20040;-69
2023/06/26 02:45:02;;;;;;;7.15;5.70;;;;;;;;;;5045827;28;20037;-68
2023/06/26 02:47:30;;;;;;;8.80;6.63;;;;;;;;;;5044154;28;20068;-68
2023/06/26 02:49:55;;;;;;;7.72;6.10;;;;;;;;;;5059807;28;20060;-68
2023/06/26 02:52:21;;;;;;;7.97;5.93;;;;;;;;;;5044903;28;20086;-68
2023/06/26 02:54:47;;;;;;;9.55;6.43;;;;;;;;;;5061333;28;20029;-68
2023/06/26 02:57:14;;;;;;;9.18;6.45;;;;;;;;;;5041849;28;20037;-68
2023/06/26 02:59:40;;;;;;;10.13;6.93;;;;;;;;;;5042084;28;20053;-68
2023/06/26 03:02:05;;;;;;;8.02;6.38;;;;;;;;;;5044477;28;20082;-68
2023/06/26 03:04:37;;;;;;;8.23;5.72;;;;;;;;;;5044343;28;20045;-68
2023/06/26 03:07:04;;;;;;;7.13;6.10;;;;;;;;;;5042376;28;20025;-68
2023/06/26 03:09:30;;;;;;;7.90;6.50;;;;;;;;;;5043867;28;20041;-68
2023/06/26 03:11:56;;;;;;;12.18;6.82;;;;;;;;;;5060297;28;20043;-68
2023/06/26 03:14:22;;;;;;;9.85;6.75;;;;;;;;;;5044215;28;20043;-68
2023/06/26 03:16:49;;;;;;;8.77;6.32;;;;;;;;;;5059600;28;20638;-68
2023/06/26 03:19:14;;;;;;;8.32;6.38;;;;;;;;;;5045010;28;20040;-68
2023/06/26 03:22:03;;;;;;;7.90;6.50;;;;;;;;;;5045355;28;20064;-68
2023/06/26 03:24:30;;;;;;;9.20;6.80;;;;;;;;;;5042258;28;20074;-68
2023/06/26 03:26:56;;;;;;;10.73;6.82;;;;;;;;;;5044952;28;20044;-68
2023/06/26 03:29:21;;;;;;;9.48;7.10;;;;;;;;;;5060721;28;20039;-68
2023/06/26 03:31:48;;;;;;;9.20;6.75;;;;;;;;;;5044439;28;20116;-68
2023/06/26 03:34:13;;;;;;;10.60;6.85;;;;;;;;;;5044623;28;20120;-68
2023/06/26 03:36:39;;;;;;;14.80;7.28;;;;;;;;;;5060845;28;20033;-68
2023/06/26 03:39:05;;;;;;;10.00;6.57;;;;;;;;;;5059460;28;20082;-68
2023/06/26 03:41:31;;;;;;;13.68;7.22;;;;;;;;;;5040396;28;20041;-68
2023/06/26 03:43:56;;;;;;;8.55;7.03;;;;;;;;;;5060540;28;20032;-68
2023/06/26 03:46:27;;;;;;;10.82;7.28;;;;;;;;;;5043639;28;20032;-68
2023/06/26 03:48:52;;;;;;;9.15;6.57;;;;;;;;;;5043457;28;20040;-68
2023/06/26 03:51:18;;;;;;;7.60;5.95;;;;;;;;;;5058457;28;20037;-69
2023/06/26 03:53:44;;;;;;;7.85;6.72;;;;;;;;;;5060672;28;20033;-68
2023/06/26 03:56:09;;;;;;;8.82;6.53;;;;;;;;;;5060336;28;20048;-68
2023/06/26 03:58:35;;;;;;;8.65;6.25;;;;;;;;;;5042894;28;20044;-68
2023/06/26 04:01:00;;;;;;;8.77;6.38;;;;;;;;;;5043344;28;20086;-69
2023/06/26 04:03:26;;;;;;;9.38;6.55;;;;;;;;;;5060080;28;20032;-68
2023/06/26 04:05:52;;;;;;;7.65;6.20;;;;;;;;;;5059762;28;20036;-68
2023/06/26 04:08:19;;;;;;;8.15;6.53;;;;;;;;;;5058565;28;20029;-68
2023/06/26 04:10:47;;;;;;;8.23;7.05;;;;;;;;;;5059870;28;20051;-68
2023/06/26 04:13:14;;;;;;;7.30;6.55;;;;;;;;;;5057675;28;20033;-68
2023/06/26 04:15:39;;;;;;;9.88;6.68;;;;;;;;;;5044899;28;20033;-68
2023/06/26 04:18:05;;;;;;;10.07;6.80;;;;;;;;;;5044554;28;20457;-68
2023/06/26 04:20:30;;;;;;;12.98;7.22;;;;;;;;;;5039735;28;20557;-68
2023/06/26 04:22:56;;;;;;;9.48;6.85;;;;;;;;;;5044024;28;20074;-68
2023/06/26 04:25:21;;;;;;;11.88;6.38;;;;;;;;;;5044393;28;20032;-68
2023/06/26 04:27:47;;;;;;;7.88;6.38;;;;;;;;;;5044582;28;20031;-68
2023/06/26 04:30:13;;;;;;;8.40;7.38;;;;;;;;;;5037324;28;20381;-68
2023/06/26 04:32:38;;;;;;;7.53;6.35;;;;;;;;;;5041115;28;20048;-68
2023/06/26 04:35:04;;;;;;;7.30;6.43;;;;;;;;;;5044563;28;20059;-69
2023/06/26 04:37:30;;;;;;;8.65;6.78;;;;;;;;;;5044030;28;20549;-68
2023/06/26 04:39:55;;;;;;;7.55;6.55;;;;;;;;;;5042185;28;20497;-68
2023/06/26 04:42:21;;;;;;;8.20;7.00;;;;;;;;;;5044755;28;20103;-68
2023/06/26 04:44:47;;;;;;;8.70;6.65;;;;;;;;;;5044681;28;20037;-68
2023/06/26 04:47:14;;;;;;;10.20;6.95;;;;;;;;;;5055963;28;20026;-68
2023/06/26 04:49:45;;;;;;;9.20;6.82;;;;;;;;;;5040093;28;20048;-68
2023/06/26 04:52:13;;;;;;;9.82;7.07;;;;;;;;;;5043966;28;20468;-68
2023/06/26 04:54:39;;;;;;;8.55;6.68;;;;;;;;;;5043133;28;20104;-68
2023/06/26 04:57:05;;;;;;;9.90;6.88;;;;;;;;;;5044053;28;20183;-68
2023/06/26 04:59:31;;;;;;;7.88;6.32;;;;;;;;;;5043917;28;20721;-67
2023/06/26 05:01:57;;;;;;;9.25;6.97;;;;;;;;;;5045014;28;20047;-68
2023/06/26 05:04:22;;;;;;;8.95;6.88;;;;;;;;;;5040289;28;20479;-68
2023/06/26 05:06:48;;;;;;;9.95;6.55;;;;;;;;;;5044362;28;20500;-68
2023/06/26 05:09:14;;;;;;;8.05;6.72;;;;;;;;;;5043451;28;20033;-68
2023/06/26 05:11:39;;;;;;;8.30;6.93;;;;;;;;;;5041894;28;20561;-68
2023/06/26 05:14:07;;;;;;;9.23;6.40;;;;;;;;;;5044182;28;20431;-68
2023/06/26 05:16:34;;;;;;;8.93;6.65;;;;;;;;;;5044116;28;20029;-68
2023/06/26 05:18:59;;;;;;;8.73;6.68;;;;;;;;;;5043916;28;20064;-68
2023/06/26 05:21:25;;;;;;;8.40;6.35;;;;;;;;;;5074544;28;20064;-68
2023/06/26 05:23:55;;;;;;;9.05;6.55;;;;;;;;;;5042168;28;20040;-67
2023/06/26 05:26:21;;;;;;;7.68;6.43;;;;;;;;;;5044815;28;20025;-68
2023/06/26 05:28:48;;;;;;;7.53;6.22;;;;;;;;;;5043876;28;20033;-67
2023/06/26 05:31:15;;;;;;;10.05;7.13;;;;;;;;;;5044929;28;20106;-69
2023/06/26 05:33:43;;;;;;;8.13;6.25;;;;;;;;;;5047697;28;20499;-68
2023/06/26 05:36:09;;;;;;;9.13;6.80;;;;;;;;;;5051017;28;20029;-68
2023/06/26 05:38:35;;;;;;;7.45;6.57;;;;;;;;;;5047435;28;20484;-68
2023/06/26 05:41:01;;;;;;;9.13;6.18;;;;;;;;;;5048806;28;20047;-67
2023/06/26 05:43:26;;;;;;;8.07;6.22;;;;;;;;;;5047806;28;20064;-68
2023/06/26 05:45:52;;;;;;;8.45;6.25;;;;;;;;;;5047457;28;20017;-68
2023/06/26 05:48:17;;;;;;;7.63;6.05;;;;;;;;;;5044272;28;20069;-68
2023/06/26 05:50:44;;;;;;;7.80;5.72;;;;;;;;;;5047299;28;20487;-68
2023/06/26 05:53:09;;;;;;;8.32;6.85;;;;;;;;;;5047741;28;20043;-68
2023/06/26 05:55:36;;;;;;;9.88;6.10;;;;;;;;;;5046702;28;20028;-67
2023/06/26 05:58:03;;;;;;;7.10;6.05;;;;;;;;;;5044786;28;20587;-67
2023/06/26 06:00:29;;;;;;;7.57;5.85;;;;;;;;;;5047080;28;20033;-67
2023/06/26 06:02:54;;;;;;;7.25;6.13;;;;;;;;;;5046950;28;20079;-67
2023/06/26 06:05:21;;;;;;;6.82;5.93;;;;;;;;;;5046949;28;20060;-67
2023/06/26 06:07:47;;;;;;;8.45;6.00;;;;;;;;;;5045618;28;20037;-67
2023/06/26 06:10:13;;;;;;;7.18;6.00;;;;;;;;;;5046883;28;20036;-67
2023/06/26 06:12:38;;;;;;;7.13;5.68;;;;;;;;;;5044953;28;20037;-68
2023/06/26 06:15:05;;;;;;;7.88;6.15;;;;;;;;;;5046568;28;20059;-68
2023/06/26 06:17:31;;;;;;;8.13;5.90;;;;;;;;;;5045747;28;20420;-68
2023/06/26 06:19:56;;;;;;;6.35;5.20;;;;;;;;;;5046426;28;20523;-68
2023/06/26 06:22:22;;;;;;;6.25;5.50;;;;;;;;;;5044484;28;20025;-67
2023/06/26 06:24:50;;;;;;;9.38;6.25;;;;;;;;;;5046643;28;20041;-68
2023/06/26 06:27:16;;;;;;;9.10;6.07;;;;;;;;;;5047005;28;20404;-68
2023/06/26 06:29:41;;;;;;;6.68;5.50;;;;;;;;;;5041368;28;20496;-68
2023/06/26 06:32:07;;;;;;;7.80;5.97;;;;;;;;;;5047385;28;20033;-68
2023/06/26 06:34:33;;;;;;;6.60;5.90;;;;;;;;;;5046496;28;20500;-68
2023/06/26 06:36:58;;;;;;;6.68;5.18;;;;;;;;;;5047429;28;20038;-68
2023/06/26 06:39:24;;;;;;;8.52;5.82;;;;;;;;;;5045765;28;20037;-67
2023/06/26 06:41:49;;;;;;;7.93;6.00;;;;;;;;;;5045103;28;20282;-68
2023/06/26 06:44:16;;;;;;;5.97;5.32;;;;;;;;;;5061030;28;20053;-67
2023/06/26 06:46:41;;;;;;;5.95;5.00;;;;;;;;;;5046324;28;20060;-68
2023/06/26 06:49:08;;;;;;;6.65;4.85;;;;;;;;;;5043697;28;20102;-68
2023/06/26 06:51:33;;;;;;;7.20;5.57;;;;;;;;;;5046387;28;20058;-68
2023/06/26 06:53:59;;;;;;;6.50;5.82;;;;;;;;;;5046242;28;20037;-67
2023/06/26 06:56:25;;;;;;;6.20;5.57;;;;;;;;;;5043858;28;20040;-68
2023/06/26 06:58:50;;;;;;;8.73;5.45;;;;;;;;;;5045803;28;20036;-68
2023/06/26 07:01:16;;;;;;;7.72;5.63;;;;;;;;;;5045669;28;20476;-68
2023/06/26 07:03:41;;;;;;;8.27;5.22;;;;;;;;;;5045640;28;20029;-68
2023/06/26 07:06:07;;;;;;;9.05;5.75;;;;;;;;;;5044664;28;20595;-68
2023/06/26 07:08:32;;;;;;;5.72;5.18;;;;;;;;;;5043951;28;20043;-67
2023/06/26 07:10:58;;;;;;;7.25;5.63;;;;;;;;;;5045024;28;20028;-68
2023/06/26 07:13:24;;;;;;;6.88;5.07;;;;;;;;;;5043319;28;20086;-68
2023/06/26 07:15:49;;;;;;;5.95;4.93;;;;;;;;;;5045359;28;20074;-68
2023/06/26 07:18:15;;;;;;;5.93;5.25;;;;;;;;;;5045016;28;20553;-68
2023/06/26 07:20:41;;;;;;;7.00;5.15;;;;;;;;;;5045584;28;20571;-68
2023/06/26 07:23:07;;;;;;;7.05;5.13;;;;;;;;;;5044544;28;20111;-67
2023/06/26 07:25:33;;;;;;;6.22;5.15;;;;;;;;;;5045300;28;20107;-68
2023/06/26 07:27:58;;;;;;;6.50;5.30;;;;;;;;;;5044836;28;20619;-68
2023/06/26 07:30:24;;;;;;;5.63;5.13;;;;;;;;;;5045015;28;20495;-67
2023/06/26 07:32:50;;;;;;;7.15;5.07;;;;;;;;;;5042973;28;20086;-67
2023/06/26 07:35:16;;;;;;;8.82;5.22;;;;;;;;;;5045502;28;20420;-68
2023/06/26 07:37:42;;;;;;;7.43;5.47;;;;;;;;;;5044825;28;20072;-67
2023/06/26 07:40:08;;;;;;;6.90;5.13;;;;;;;;;;5043911;28;20079;-68
2023/06/26 07:42:34;;;;;;;6.15;5.20;;;;;;;;;;5039324;28;20360;-68
2023/06/26 07:44:59;;;;;;;7.22;5.03;;;;;;;;;;5045257;28;20064;-68
2023/06/26 07:47:25;;;;;;;6.40;4.60;;;;;;;;;;5045302;28;20120;-68
2023/06/26 07:49:51;;;;;;;7.22;4.45;;;;;;;;;;5045464;28;20207;-68
2023/06/26 07:52:18;;;;;;;6.68;4.88;;;;;;;;;;5043033;28;20663;-68
2023/06/26 07:54:44;;;;;;;9.20;5.50;;;;;;;;;;5041880;28;20104;-68
2023/06/26 07:57:12;;;;;;;5.82;4.85;;;;;;;;;;5044701;28;20115;-68
2023/06/26 07:59:38;;;;;;;6.13;5.03;;;;;;;;;;5043298;28;20033;-68
2023/06/26 08:02:04;;;;;;;7.47;4.93;;;;;;;;;;5044709;28;20036;-68
2023/06/26 08:04:31;;;;;;;5.97;5.00;;;;;;;;;;5044389;28;20052;-68
2023/06/26 08:06:58;;;;;;;6.68;4.70;;;;;;;;;;5044481;28;20329;-68
2023/06/26 08:09:26;;;;;;;6.55;5.22;;;;;;;;;;5043063;28;20037;-67
2023/06/26 08:11:51;;;;;;;4.93;4.40;;;;;;;;;;5044450;28;20488;-68
2023/06/26 08:14:17;;;;;;;6.07;4.65;;;;;;;;;;5044511;28;20044;-68
2023/06/26 08:16:43;;;;;;;9.43;4.90;;;;;;;;;;5043897;28;20234;-68
2023/06/26 08:19:10;;;;;;;5.47;4.60;;;;;;;;;;5044244;28;20040;-68
2023/06/26 08:21:36;;;;;;;6.05;4.50;;;;;;;;;;5043241;28;20033;-68
2023/06/26 08:24:02;;;;;;;6.32;4.75;;;;;;;;;;5044561;28;20036;-68
2023/06/26 08:26:28;;;;;;;4.80;4.22;;;;;;;;;;5042978;28;20037;-68
2023/06/26 08:28:53;;;;;;;4.45;4.03;;;;;;;;;;5043831;28;20218;-68
2023/06/26 08:31:19;;;;;;;6.22;4.47;;;;;;;;;;5043847;28;20392;-68
2023/06/26 08:33:45;;;;;;;5.28;4.30;;;;;;;;;;5042109;28;20037;-68
2023/06/26 08:36:10;;;;;;;5.78;4.40;;;;;;;;;;5043981;28;20087;-68
2023/06/26 08:38:36;;;;;;;8.90;4.90;;;;;;;;;;5043184;28;20037;-68
2023/06/26 08:41:01;;;;;;;5.63;4.78;;;;;;;;;;5042801;28;20112;-68
2023/06/26 08:43:28;;;;;;;4.78;4.28;;;;;;;;;;5042970;28;20040;-68
2023/06/26 08:45:54;;;;;;;7.13;4.47;;;;;;;;;;5044183;28;20041;-68
2023/06/26 08:48:21;;;;;;;9.25;4.70;;;;;;;;;;5043764;28;20504;-68
2023/06/26 08:50:52;;;;;;;9.55;4.47;;;;;;;;;;5042049;28;20196;-68
2023/06/26 08:53:30;;;;;;;6.63;4.53;;;;;;;;;;5073948;28;20110;-68
2023/06/26 08:55:58;;;;;;;6.47;4.32;;;;;;;;;;5043542;28;20060;-68
2023/06/26 08:58:24;;;;;;;5.50;4.60;;;;;;;;;;5042731;28;20047;-68
2023/06/26 09:00:49;;;;;;;5.38;4.55;;;;;;;;;;5039697;28;20032;-68
2023/06/26 09:03:15;;;;;;;8.60;4.30;;;;;;;;;;5043838;28;20040;-68
2023/06/26 09:05:41;;;;;;;4.85;4.18;;;;;;;;;;5046059;28;20147;-68
2023/06/26 09:08:07;;;;;;;5.97;3.90;;;;;;;;;;5045654;28;20044;-68
2023/06/26 09:10:33;;;;;;;4.95;4.35;;;;;;;;;;5047230;28;20051;-68
2023/06/26 09:13:01;;;;;;;5.30;4.13;;;;;;;;;;5047411;28;20044;-68
2023/06/26 09:15:28;;;;;;;6.87;4.00;;;;;;;;;;5047204;28;20570;-68
2023/06/26 09:17:58;;;;;;;4.50;3.90;;;;;;;;;;5045765;28;20037;-69
2023/06/26 09:20:27;;;;;;;4.88;4.28;;;;;;;;;;5047259;28;20064;-68
2023/06/26 09:22:53;;;;;;;5.03;4.20;;;;;;;;;;5045296;28;20037;-68
2023/06/26 09:25:22;;;;;;;5.10;4.30;;;;;;;;;;5047031;28;20044;-68
2023/06/26 09:27:48;;;;;;;6.20;4.00;;;;;;;;;;5046917;28;20112;-68
2023/06/26 09:30:16;;;;;;;4.38;3.97;;;;;;;;;;5047308;28;20431;-68
2023/06/26 09:32:42;;;;;;;5.25;4.20;;;;;;;;;;5047319;28;20507;-68
2023/06/26 09:35:07;;;;;;;5.25;4.15;;;;;;;;;;5045301;28;20028;-68
2023/06/26 09:37:34;;;;;;;5.20;4.70;;;;;;;;;;5047086;28;21047;-67
2023/06/26 09:40:00;;;;;;;5.85;4.10;;;;;;;;;;5047174;28;20453;-67
2023/06/26 09:42:25;;;;;;;5.07;4.40;;;;;;;;;;5045634;28;20119;-67
2023/06/26 09:44:51;;;;;;;5.47;4.05;;;;;;;;;;5047208;28;20492;-67
2023/06/26 09:47:18;;;;;;;4.55;3.90;;;;;;;;;;5047011;28;20072;-67
2023/06/26 09:49:45;;;;;;;4.35;3.90;;;;;;;;;;5046678;28;20104;-67
2023/06/26 09:52:16;;;;;;;4.38;3.97;;;;;;;;;;5045397;28;20039;-67
2023/06/26 09:54:44;;;;;;;5.90;4.57;;;;;;;;;;5046823;28;20037;-67
2023/06/26 09:57:12;;;;;;;5.53;4.18;;;;;;;;;;5046842;28;20429;-67
2023/06/26 09:59:39;;;;;;;6.35;4.20;;;;;;;;;;5046719;28;20028;-67
2023/06/26 10:02:05;;;;;;;6.65;4.10;;;;;;;;;;5045350;28;20102;-67
2023/06/26 10:04:32;;;;;;;5.43;4.20;;;;;;;;;;5046543;28;20056;-67
2023/06/26 10:07:00;;;;;;;4.47;3.95;;;;;;;;;;5046752;28;20029;-67
2023/06/26 10:09:26;;;;;;;5.03;4.40;;;;;;;;;;5042621;28;20536;-67
2023/06/26 10:12:21;;;;;;;6.85;4.30;;;;;;;;;;5046513;28;20136;-67
2023/06/26 10:14:47;;;;;;;5.38;4.20;;;;;;;;;;5046226;28;20029;-67
2023/06/26 10:17:16;;;;;;;4.75;4.20;;;;;;;;;;5045095;28;20079;-67
2023/06/26 10:19:44;;;;;;;6.18;4.15;;;;;;;;;;5046027;28;20029;-67
2023/06/26 10:22:14;;;;;;;6.80;4.00;;;;;;;;;;5046976;28;20037;-67
2023/06/26 10:24:41;;;;;;;6.63;3.83;;;;;;;;;;5045257;28;20117;-67
2023/06/26 10:27:17;;;;;;;4.95;4.05;;;;;;;;;;5047630;28;20070;-67
2023/06/26 10:29:46;;;;;;;4.65;3.95;;;;;;;;;;5042590;28;20051;-67
2023/06/26 10:32:13;;;;;;;6.15;4.20;;;;;;;;;;5046146;28;20041;-67
2023/06/26 10:34:39;;;;;;;5.57;4.10;;;;;;;;;;5043918;28;20036;-67
2023/06/26 10:37:04;;;;;;;6.30;4.03;;;;;;;;;;5046056;28;20530;-67
2023/06/26 10:39:56;;;;;;;5.55;3.80;;;;;;;;;;5045805;28;20037;-67
2023/06/26 10:42:35;;;;;;;5.20;4.00;;;;;;;;;;5039409;28;20056;-67
2023/06/26 10:45:12;;;;;;;6.72;4.20;;;;;;;;;;5045198;28;20037;-67
2023/06/26 10:47:41;;;;;;;5.30;4.07;;;;;;;;;;5045934;28;20515;-67
2023/06/26 10:50:28;;;;;;;5.35;4.50;;;;;;;;;;5045206;28;20117;-67
2023/06/26 10:53:22;;;;;;;5.25;4.75;;;;;;;;;;5044336;28;20033;-67
2023/06/26 10:55:56;;;;;;;5.35;4.80;;;;;;;;;;5045371;28;20086;-67
2023/06/26 10:58:30;;;;;;;5.40;4.45;;;;;;;;;;5045645;28;20045;-67
2023/06/26 11:01:11;;;;;;;6.97;4.70;;;;;;;;;;5061184;28;20041;-66
2023/06/26 11:03:38;;;;;;;6.63;4.38;;;;;;;;;;5045260;28;20072;-66
2023/06/26 11:06:21;;;;;;;5.57;4.78;;;;;;;;;;5045524;28;20039;-67
2023/06/26 11:08:55;;;;;;;6.60;4.93;;;;;;;;;;5027292;28;20048;-66
2023/06/26 11:11:22;;;;;;;5.18;4.68;;;;;;;;;;5041666;28;20044;-66
2023/06/26 11:13:48;;;;;;;5.75;5.05;;;;;;;;;;5044315;28;20550;-67
2023/06/26 11:16:14;;;;;;;6.10;5.50;;;;;;;;;;5045293;28;20049;-67
2023/06/26 11:18:41;;;;;;;7.15;5.00;;;;;;;;;;5041393;28;20396;-67
2023/06/26 11:21:08;;;;;;;5.93;4.97;;;;;;;;;;5039185;28;20044;-67
2023/06/26 11:23:36;;;;;;;5.60;5.00;;;;;;;;;;5038487;28;20689;-67
2023/06/26 11:26:18;;;;;;;7.90;5.30;;;;;;;;;;5043859;28;20044;-67
2023/06/26 11:28:52;;;;;;;5.57;5.07;;;;;;;;;;5041999;28;20283;-67
2023/06/26 11:31:31;;;;;;;5.70;4.72;;;;;;;;;;5043472;28;20059;-67
2023/06/26 11:34:03;;;;;;;5.25;4.75;;;;;;;;;;5040756;28;20119;-67
2023/06/26 11:36:29;;;;;;;5.60;5.07;;;;;;;;;;5042314;28;20036;-67
2023/06/26 11:39:03;;;;;;;5.70;5.10;;;;;;;;;;5043186;28;20464;-66
2023/06/26 11:41:30;;;;;;;5.28;4.78;;;;;;;;;;5043266;28;20044;-67
2023/06/26 11:44:00;;;;;;;5.63;4.78;;;;;;;;;;5040629;28;20060;-67
2023/06/26 11:46:25;;;;;;;8.65;5.35;;;;;;;;;;5043124;28;20051;-67
2023/06/26 11:48:51;;;;;;;8.07;5.38;;;;;;;;;;5042898;28;20480;-66
2023/06/26 11:51:17;;;;;;;6.30;4.45;;;;;;;;;;5043268;28;20037;-67
2023/06/26 11:53:45;;;;;;;7.95;5.20;;;;;;;;;;5040734;28;20041;-67
2023/06/26 11:56:12;;;;;;;5.68;4.82;;;;;;;;;;5039529;28;20053;-66
2023/06/26 11:58:58;;;;;;;5.80;5.20;;;;;;;;;;5042624;28;20060;-67
2023/06/26 12:01:25;;;;;;;7.25;4.78;;;;;;;;;;5043020;28;20395;-67
2023/06/26 12:03:51;;;;;;;9.02;5.28;;;;;;;;;;5040484;28;20032;-67
2023/06/26 12:06:16;;;;;;;8.23;5.00;;;;;;;;;;5042491;28;20040;-67
2023/06/26 12:08:43;;;;;;;5.20;4.70;;;;;;;;;;5042613;28;20045;-67
2023/06/26 12:11:09;;;;;;;6.50;5.00;;;;;;;;;;5042751;28;20504;-68
2023/06/26 12:13:34;;;;;;;5.57;4.80;;;;;;;;;;5041706;28;20043;-68
2023/06/26 12:16:00;;;;;;;5.55;5.03;;;;;;;;;;5041840;28;20462;-67
2023/06/26 12:18:26;;;;;;;6.03;5.25;;;;;;;;;;5042004;28;20071;-67
2023/06/26 12:20:52;;;;;;;6.22;5.63;;;;;;;;;;5042499;28;20430;-67
2023/06/26 12:23:18;;;;;;;5.95;4.82;;;;;;;;;;5040932;28;20868;-67
2023/06/26 12:25:43;;;;;;;6.68;4.70;;;;;;;;;;5042562;28;20037;-67
2023/06/26 12:28:18;;;;;;;7.35;5.38;;;;;;;;;;5041875;28;20119;-67
2023/06/26 12:31:07;;;;;;;10.77;4.97;;;;;;;;;;5040491;28;20400;-67
2023/06/26 12:33:33;;;;;;;5.40;4.85;;;;;;;;;;5042572;28;20132;-67
2023/06/26 12:35:58;;;;;;;6.72;5.30;;;;;;;;;;5042579;28;20450;-67
2023/06/26 12:38:33;;;;;;;8.73;5.25;;;;;;;;;;5040938;28;20090;-67
2023/06/26 12:40:59;;;;;;;5.93;5.30;;;;;;;;;;5046596;28;20036;-67
2023/06/26 12:43:26;;;;;;;5.30;4.80;;;;;;;;;;5046631;28;20043;-67
2023/06/26 12:45:57;;;;;;;5.90;5.20;;;;;;;;;;5046831;28;20029;-67
2023/06/26 12:48:46;;;;;;;6.55;5.20;;;;;;;;;;5044972;28;20032;-67
2023/06/26 12:51:14;;;;;;;5.90;4.75;;;;;;;;;;5045932;28;20102;-67
2023/06/26 12:53:40;;;;;;;5.82;5.15;;;;;;;;;;5046951;28;20041;-67
2023/06/26 12:56:09;;;;;;;5.78;4.95;;;;;;;;;;5044893;28;20454;-67
2023/06/26 12:58:36;;;;;;;7.95;5.00;;;;;;;;;;5045778;28;20032;-67
2023/06/26 13:01:13;;;;;;;6.60;5.07;;;;;;;;;;5046114;28;20041;-67
2023/06/26 13:03:39;;;;;;;5.60;5.10;;;;;;;;;;5045832;28;20094;-67
2023/06/26 13:06:04;;;;;;;5.25;4.75;;;;;;;;;;5043137;28;20571;-67
2023/06/26 13:08:30;;;;;;;5.32;4.82;;;;;;;;;;5045658;28;20403;-67
2023/06/26 13:10:55;;;;;;;6.32;4.55;;;;;;;;;;5046778;28;20151;-67
2023/06/26 13:13:21;;;;;;;7.28;5.28;;;;;;;;;;5045695;28;20059;-68
2023/06/26 13:15:47;;;;;;;10.70;4.47;;;;;;;;;;5045053;28;20037;-68
2023/06/26 13:18:13;;;;;;;4.82;4.32;;;;;;;;;;5044134;28;20095;-67
2023/06/26 13:20:39;;;;;;;5.75;4.38;;;;;;;;;;5045710;28;20033;-67
2023/06/26 13:23:04;;;;;;;5.28;4.65;;;;;;;;;;5043848;28;20103;-67
2023/06/26 13:25:30;;;;;;;5.18;4.68;;;;;;;;;;5043149;28;20482;-67
2023/06/26 13:27:55;;;;;;;6.72;4.68;;;;;;;;;;5045171;28;20032;-67
2023/06/26 13:30:21;;;;;;;4.70;4.28;;;;;;;;;;5044699;28;20044;-67
2023/06/26 13:32:47;;;;;;;5.47;4.75;;;;;;;;;;5045324;28;20029;-66
2023/06/26 13:35:13;;;;;;;5.50;4.53;;;;;;;;;;5045705;28;20044;-67
2023/06/26 13:37:40;;;;;;;5.03;4.50;;;;;;;;;;5045811;28;20041;-67
2023/06/26 13:40:07;;;;;;;5.43;4.45;;;;;;;;;;5043636;28;20116;-67
2023/06/26 13:42:33;;;;;;;5.10;4.35;;;;;;;;;;5045536;28;20049;-67
2023/06/26 13:44:58;;;;;;;5.78;5.13;;;;;;;;;;5045116;28;20029;-67
2023/06/26 13:47:24;;;;;;;9.00;4.80;;;;;;;;;;5043515;28;20035;-66
2023/06/26 13:49:50;;;;;;;5.88;5.05;;;;;;;;;;5044362;28;20326;-67
2023/06/26 13:52:15;;;;;;;6.85;4.90;;;;;;;;;;5044932;28;20552;-67
2023/06/26 13:54:41;;;;;;;5.30;4.60;;;;;;;;;;5058984;28;20535;-67
2023/06/26 13:57:07;;;;;;;4.75;4.30;;;;;;;;;;5043371;28;20036;-66
2023/06/26 13:59:34;;;;;;;6.15;4.72;;;;;;;;;;5044714;28;20052;-67
2023/06/26 14:01:59;;;;;;;5.35;4.40;;;;;;;;;;5045541;28;20044;-67
2023/06/26 14:04:25;;;;;;;5.88;4.22;;;;;;;;;;5043939;28;20392;-67
2023/06/26 14:06:52;;;;;;;4.88;4.38;;;;;;;;;;5044389;28;20303;-67
2023/06/26 14:09:17;;;;;;;6.32;4.82;;;;;;;;;;5046611;28;20028;-67
2023/06/26 14:11:44;;;;;;;5.40;4.78;;;;;;;;;;5043142;28;20045;-67
2023/06/26 14:14:09;;;;;;;4.45;3.95;;;;;;;;;;5046558;28;20040;-67
2023/06/26 14:16:35;;;;;;;7.60;4.75;;;;;;;;;;5046534;28;20345;-67
2023/06/26 14:19:01;;;;;;;6.05;4.50;;;;;;;;;;5076419;28;20087;-67
2023/06/26 14:21:27;;;;;;;8.38;4.57;;;;;;;;;;5046570;28;20044;-67
2023/06/26 14:23:54;;;;;;;5.05;4.50;;;;;;;;;;5046446;28;20036;-67
2023/06/26 14:26:20;;;;;;;5.60;4.32;;;;;;;;;;5046517;28;20032;-67
2023/06/26 14:28:46;;;;;;;4.93;4.40;;;;;;;;;;5044823;28;20479;-67
2023/06/26 14:31:11;;;;;;;4.70;4.20;;;;;;;;;;5046319;28;20025;-67
2023/06/26 14:33:37;;;;;;;4.43;4.03;;;;;;;;;;5046705;28;20365;-67
2023/06/26 14:36:03;;;;;;;4.22;3.83;;;;;;;;;;5046361;28;20458;-67
2023/06/26 14:38:28;;;;;;;5.30;4.30;;;;;;;;;;5042654;28;20041;-67
2023/06/26 14:40:54;;;;;;;4.20;3.80;;;;;;;;;;5045569;28;20056;-67
2023/06/26 14:43:19;;;;;;;4.80;4.00;;;;;;;;;;5045554;28;20255;-67